NCAR-RAP Real-Time Weather Data

Output produced by METARs form (12 May 2021  10:51 UTC)
found at http://weather.rap.ucar.edu/surface/
 
KLND 120953Z AUTO 30003KT 10SM CLR 02/M01 A3019 RMK AO2 SLP213 T00221011
KLND 120853Z AUTO 21004KT 10SM CLR 04/M02 A3018 RMK AO2 SLP210 T00391022 58004
KLND 120753Z AUTO 22005KT 10SM CLR 04/M02 A3019 RMK AO2 SLP218 T00391017
KLND 120653Z AUTO 14004KT 10SM BKN120 05/01 A3019 RMK AO2 SLP217 T00500011 401110022
KLND 120553Z AUTO 25003KT 10SM SCT065 OVC090 06/01 A3019 RMK AO2 SLP219 T00560011 10094 20050 50007
KLND 120453Z AUTO 30008KT 10SM FEW075 BKN090 BKN120 06/01 A3020 RMK AO2 SLP225 T00560011
KLND 120353Z AUTO 23006KT 10SM FEW055 SCT080 SCT100 06/01 A3019 RMK AO2 SLP221 T00560011
KLND 120253Z AUTO 16004KT 10SM SCT090 OVC110 07/01 A3017 RMK AO2 SLP211 T00720006 53003
KLND 120153Z AUTO 23009KT 10SM FEW120 07/01 A3016 RMK AO2 SLP211 T00670011
KLND 120053Z AUTO 22010KT 10SM CLR 07/01 A3016 RMK AO2 SLP213 T00670011
KLND 112353Z AUTO 22015KT 10SM BKN070 OVC085 08/01 A3016 RMK AO2 SLP208 T00830011 10111 20050 55003
KLND 112253Z AUTO VRB04KT 10SM BKN060 BKN110 10/M01 A3016 RMK AO2 SLP205 T01001006
KLND 112153Z AUTO VRB05KT 10SM CLR 11/00 A3016 RMK AO2 SLP203 T01060000
KLND 112053Z AUTO VRB04KT 10SM FEW038 09/M01 A3017 RMK AO2 SLP209 T00891006 58012